Time,TemperatureF,DewpointF,PressureIn,WindDirection,WindDirectionDegrees,WindSpeedMPH,WindSpeedGustMPH,Humidity,HourlyPrecipIn,Conditions,Clouds,dailyrainin,SoftwareType,DateUTC
2013-09-25 00:00:00,78.2,50.0,29.87,NW,320,0.0,1.0,37,0.00,,,0.01,weatherlink.com 1.10,2013-09-25 05:00:00,
2013-09-25 00:15:00,77.6,50.0,29.87,NW,318,0.0,2.0,38,0.00,,,0.00,weatherlink.com 1.10,2013-09-25 05:15:00,
2013-09-25 00:30:00,75.6,50.0,29.87,NE,50,0.0,1.0,41,0.00,,,0.00,weatherlink.com 1.10,2013-09-25 05:30:00,
2013-09-25 00:45:00,74.5,51.0,29.87,NE,50,0.0,1.0,44,0.00,,,0.00,weatherlink.com 1.10,2013-09-25 05:45:00,
2013-09-25 01:00:00,73.0,51.0,29.87,NE,50,0.0,0.0,46,0.00,,,0.00,weatherlink.com 1.10,2013-09-25 06:00:00,
2013-09-25 01:15:00,75.1,50.0,29.87,WNW,295,1.0,4.0,42,0.00,,,0.00,weatherlink.com 1.10,2013-09-25 06:15:00,
2013-09-25 01:30:00,75.1,49.0,29.87,North,6,0.0,2.0,40,0.00,,,0.00,weatherlink.com 1.10,2013-09-25 06:30:00,
2013-09-25 01:45:00,73.9,51.0,29.87,SW,223,3.0,3.0,44,0.00,,,0.00,weatherlink.com 1.10,2013-09-25 06:45:00,
2013-09-25 02:00:00,72.7,52.0,29.87,WSW,247,0.0,1.0,48,0.00,,,0.00,weatherlink.com 1.10,2013-09-25 07:00:00,
2013-09-25 02:15:00,71.2,53.0,29.87,SSW,200,0.0,2.0,53,0.00,,,0.00,weatherlink.com 1.10,2013-09-25 07:15:00,
2013-09-25 02:30:00,71.3,53.0,29.87,SSW,211,0.0,2.0,53,0.00,,,0.00,weatherlink.com 1.10,2013-09-25 07:30:00,
2013-09-25 02:45:00,70.6,54.0,29.86,SSW,211,0.0,0.0,55,0.00,,,0.00,weatherlink.com 1.10,2013-09-25 07:45:00,
2013-09-25 03:00:00,69.9,53.0,29.86,SSW,211,0.0,1.0,56,0.00,,,0.00,weatherlink.com 1.10,2013-09-25 08:00:00,
2013-09-25 03:15:00,69.3,54.0,29.86,SSE,157,1.0,5.0,59,0.00,,,0.00,weatherlink.com 1.10,2013-09-25 08:15:00,
2013-09-25 03:31:00,68.2,55.0,29.86,SW,229,0.0,2.0,63,0.00,,,0.00,weatherlink.com 1.10,2013-09-25 08:31:00,
2013-09-25 03:46:00,68.5,55.0,29.86,WSW,252,0.0,3.0,62,0.00,,,0.00,weatherlink.com 1.10,2013-09-25 08:46:00,
2013-09-25 04:01:00,66.1,64.0,29.86,SW,217,0.0,2.0,92,0.00,,,0.00,weatherlink.com 1.10,2013-09-25 09:01:00,
2013-09-25 04:16:00,62.0,60.0,29.86,SW,214,0.0,0.0,92,0.01,,,0.01,weatherlink.com 1.10,2013-09-25 09:16:00,
2013-09-25 04:31:00,60.4,59.0,29.86,SSW,213,0.0,2.0,95,0.01,,,0.01,weatherlink.com 1.10,2013-09-25 09:31:00,
2013-09-25 04:46:00,60.2,59.0,29.86,SSW,213,1.0,1.0,95,0.01,,,0.01,weatherlink.com 1.10,2013-09-25 09:46:00,
2013-09-25 05:01:00,60.5,59.0,29.86,NW,326,1.0,3.0,96,0.01,,,0.01,weatherlink.com 1.10,2013-09-25 10:01:00,
2013-09-25 05:16:00,60.9,60.0,29.86,SSW,198,1.0,2.0,96,0.00,,,0.01,weatherlink.com 1.10,2013-09-25 10:16:00,
2013-09-25 05:31:00,60.7,60.0,29.86,SW,219,0.0,1.0,96,0.00,,,0.01,weatherlink.com 1.10,2013-09-25 10:31:00,
2013-09-25 05:46:00,60.6,60.0,29.86,SW,218,0.0,0.0,96,0.00,,,0.01,weatherlink.com 1.10,2013-09-25 10:46:00,
2013-09-25 06:01:00,60.4,59.0,29.86,SW,219,0.0,1.0,96,0.00,,,0.01,weatherlink.com 1.10,2013-09-25 11:01:00,
2013-09-25 06:16:00,60.1,59.0,29.87,SE,143,0.0,1.0,95,0.00,,,0.01,weatherlink.com 1.10,2013-09-25 11:16:00,
2013-09-25 06:31:00,60.0,59.0,29.87,SE,143,0.0,0.0,96,0.00,,,0.01,weatherlink.com 1.10,2013-09-25 11:31:00,
2013-09-25 06:46:00,60.1,59.0,29.87,SE,143,0.0,0.0,96,0.00,,,0.01,weatherlink.com 1.10,2013-09-25 11:46:00,
2013-09-25 07:01:00,60.1,59.0,29.87,SE,143,0.0,0.0,96,0.00,,,0.01,weatherlink.com 1.10,2013-09-25 12:01:00,
2013-09-25 07:16:00,60.4,60.0,29.87,SE,143,0.0,0.0,97,0.00,,,0.01,weatherlink.com 1.10,2013-09-25 12:16:00,
2013-09-25 07:31:00,60.6,60.0,29.87,SE,143,0.0,1.0,97,0.00,,,0.01,weatherlink.com 1.10,2013-09-25 12:31:00,
2013-09-25 07:46:00,61.6,61.0,29.87,SE,143,0.0,1.0,97,0.00,,,0.01,weatherlink.com 1.10,2013-09-25 12:46:00,
2013-09-25 08:01:00,64.0,63.0,29.88,SE,143,0.0,0.0,97,0.00,,,0.01,weatherlink.com 1.10,2013-09-25 13:01:00,
2013-09-25 08:16:00,66.0,65.0,29.88,SE,143,0.0,0.0,96,0.00,,,0.01,weatherlink.com 1.10,2013-09-25 13:16:00,
2013-09-25 08:31:00,66.8,65.0,29.88,SE,139,0.0,1.0,94,0.00,,,0.01,weatherlink.com 1.10,2013-09-25 13:31:00,
2013-09-25 08:46:00,69.1,66.0,29.88,SE,127,0.0,0.0,89,0.00,,,0.01,weatherlink.com 1.10,2013-09-25 13:46:00,
2013-09-25 09:01:00,71.9,62.0,29.89,SE,127,0.0,1.0,71,0.00,,,0.01,weatherlink.com 1.10,2013-09-25 14:01:00,
2013-09-25 09:16:00,72.6,59.0,29.89,NNW,336,1.0,2.0,63,0.00,,,0.01,weatherlink.com 1.10,2013-09-25 14:16:00,
2013-09-25 09:31:00,74.4,60.0,29.89,WNW,285,0.0,2.0,62,0.00,,,0.01,weatherlink.com 1.10,2013-09-25 14:31:00,
2013-09-25 09:46:00,77.7,60.0,29.90,WNW,284,0.0,1.0,55,0.00,,,0.01,weatherlink.com 1.10,2013-09-25 14:46:00,
2013-09-25 10:01:00,79.0,56.0,29.90,SE,146,2.0,4.0,45,0.00,,,0.01,weatherlink.com 1.10,2013-09-25 15:01:00,
2013-09-25 10:16:00,80.7,53.0,29.90,SSW,201,2.0,3.0,38,0.00,,,0.01,weatherlink.com 1.10,2013-09-25 15:16:00,
2013-09-25 10:31:00,81.7,53.0,29.91,SSE,165,2.0,4.0,37,0.00,,,0.01,weatherlink.com 1.10,2013-09-25 15:31:00,
2013-09-25 10:46:00,82.3,54.0,29.91,SSE,163,1.0,6.0,38,0.00,,,0.01,weatherlink.com 1.10,2013-09-25 15:46:00,
2013-09-25 11:01:00,82.6,53.0,29.91,ESE,107,4.0,5.0,36,0.00,,,0.01,weatherlink.com 1.10,2013-09-25 16:01:00,
2013-09-25 11:16:00,83.8,55.0,29.90,SE,132,2.0,4.0,37,0.00,,,0.01,weatherlink.com 1.10,2013-09-25 16:16:00,
2013-09-25 11:31:00,85.0,53.0,29.90,SE,127,1.0,5.0,33,0.00,,,0.01,weatherlink.com 1.10,2013-09-25 16:31:00,
2013-09-25 11:46:00,85.4,53.0,29.89,SE,134,5.0,5.0,33,0.00,,,0.01,weatherlink.com 1.10,2013-09-25 16:46:00,
2013-09-25 12:02:00,86.6,54.0,29.89,East,98,3.0,4.0,33,0.00,,,0.01,weatherlink.com 1.10,2013-09-25 17:02:00,
2013-09-25 12:17:00,86.7,53.0,29.88,NNE,16,0.0,5.0,32,0.00,,,0.01,weatherlink.com 1.10,2013-09-25 17:17:00,
2013-09-25 12:32:00,89.2,54.0,29.88,SSW,205,1.0,3.0,30,0.00,,,0.01,weatherlink.com 1.10,2013-09-25 17:32:00,
2013-09-25 12:47:00,89.6,54.0,29.87,SSE,153,2.0,7.0,30,0.00,,,0.01,weatherlink.com 1.10,2013-09-25 17:47:00,
2013-09-25 13:02:00,89.1,52.0,29.86,ESE,118,1.0,6.0,28,0.00,,,0.01,weatherlink.com 1.10,2013-09-25 18:02:00,
2013-09-25 13:17:00,90.5,52.0,29.86,South,186,2.0,6.0,27,0.00,,,0.01,weatherlink.com 1.10,2013-09-25 18:17:00,
2013-09-25 13:32:00,91.1,51.0,29.85,SSE,158,2.0,5.0,25,0.00,,,0.01,weatherlink.com 1.10,2013-09-25 18:32:00,
2013-09-25 14:02:00,92.0,51.0,29.83,WNW,294,0.0,5.0,25,0.00,,,0.01,weatherlink.com 1.10,2013-09-25 19:02:00,
2013-09-25 14:17:00,93.0,51.0,29.82,SSE,158,3.0,5.0,24,0.00,,,0.01,weatherlink.com 1.10,2013-09-25 19:17:00,
2013-09-25 14:32:00,92.7,51.0,29.81,SSE,162,2.0,8.0,24,0.00,,,0.01,weatherlink.com 1.10,2013-09-25 19:32:00,
2013-09-25 14:47:00,92.6,52.0,29.80,East,97,1.0,3.0,25,0.00,,,0.01,weatherlink.com 1.10,2013-09-25 19:47:00,
2013-09-25 15:02:00,93.1,49.0,29.80,SW,236,4.0,5.0,22,0.00,,,0.01,weatherlink.com 1.10,2013-09-25 20:02:00,
2013-09-25 15:17:00,93.7,51.0,29.80,SW,217,3.0,8.0,23,0.00,,,0.01,weatherlink.com 1.10,2013-09-25 20:17:00,
2013-09-25 15:32:00,93.7,51.0,29.79,ENE,67,2.0,3.0,23,0.00,,,0.01,weatherlink.com 1.10,2013-09-25 20:32:00,
2013-09-25 15:47:00,93.7,49.0,29.79,SSW,201,1.0,6.0,22,0.00,,,0.01,weatherlink.com 1.10,2013-09-25 20:47:00,
2013-09-25 16:02:00,94.5,50.0,29.78,ENE,73,2.0,5.0,22,0.00,,,0.01,weatherlink.com 1.10,2013-09-25 21:02:00,
2013-09-25 16:17:00,93.9,48.0,29.78,SE,134,5.0,9.0,21,0.00,,,0.01,weatherlink.com 1.10,2013-09-25 21:17:00,
2013-09-25 16:32:00,94.3,49.0,29.78,SW,229,3.0,6.0,21,0.00,,,0.01,weatherlink.com 1.10,2013-09-25 21:32:00,
2013-09-25 16:47:00,94.1,49.0,29.77,SE,126,3.0,7.0,21,0.00,,,0.01,weatherlink.com 1.10,2013-09-25 21:47:00,
2013-09-25 17:02:00,94.1,50.0,29.77,ESE,104,1.0,9.0,22,0.00,,,0.01,weatherlink.com 1.10,2013-09-25 22:02:00,
2013-09-25 17:17:00,94.0,51.0,29.77,SSE,153,4.0,9.0,23,0.00,,,0.01,weatherlink.com 1.10,2013-09-25 22:17:00,
2013-09-25 17:32:00,93.9,51.0,29.77,SE,131,2.0,9.0,23,0.00,,,0.01,weatherlink.com 1.10,2013-09-25 22:32:00,
2013-09-25 17:47:00,93.9,51.0,29.76,SSW,201,4.0,7.0,23,0.00,,,0.01,weatherlink.com 1.10,2013-09-25 22:47:00,
2013-09-25 18:02:00,93.9,50.0,29.76,SSW,195,3.0,8.0,22,0.00,,,0.01,weatherlink.com 1.10,2013-09-25 23:02:00,
2013-09-25 18:17:00,93.8,50.0,29.76,SE,131,2.0,6.0,22,0.00,,,0.01,weatherlink.com 1.10,2013-09-25 23:17:00,
2013-09-25 18:32:00,93.2,49.0,29.76,ESE,113,1.0,5.0,22,0.00,,,0.01,weatherlink.com 1.10,2013-09-25 23:32:00,
2013-09-25 18:47:00,92.9,51.0,29.76,SE,136,3.0,4.0,24,0.00,,,0.01,weatherlink.com 1.10,2013-09-25 23:47:00,
2013-09-25 19:02:00,91.2,52.0,29.76,SE,124,1.0,4.0,26,0.00,,,0.01,weatherlink.com 1.10,2013-09-26 00:02:00,
2013-09-25 19:17:00,89.6,51.0,29.76,ESE,112,2.0,4.0,27,0.00,,,0.01,weatherlink.com 1.10,2013-09-26 00:17:00,
2013-09-25 19:33:00,87.7,52.0,29.76,East,101,3.0,5.0,29,0.00,,,0.01,weatherlink.com 1.10,2013-09-26 00:33:00,
2013-09-25 19:48:00,86.7,52.0,29.77,East,83,1.0,5.0,30,0.00,,,0.01,weatherlink.com 1.10,2013-09-26 00:48:00,
2013-09-25 20:03:00,85.7,52.0,29.77,East,101,2.0,4.0,31,0.00,,,0.01,weatherlink.com 1.10,2013-09-26 01:03:00,
2013-09-25 20:18:00,84.7,52.0,29.77,ESE,121,3.0,4.0,32,0.00,,,0.01,weatherlink.com 1.10,2013-09-26 01:18:00,
2013-09-25 20:33:00,84.0,52.0,29.77,SE,124,2.0,4.0,33,0.00,,,0.01,weatherlink.com 1.10,2013-09-26 01:33:00,
2013-09-25 20:48:00,83.4,53.0,29.77,ESE,105,2.0,4.0,35,0.00,,,0.01,weatherlink.com 1.10,2013-09-26 01:48:00,
2013-09-25 21:03:00,82.6,52.0,29.78,SE,132,1.0,4.0,35,0.00,,,0.01,weatherlink.com 1.10,2013-09-26 02:03:00,
2013-09-25 21:18:00,82.3,53.0,29.79,SSE,149,2.0,6.0,36,0.00,,,0.01,weatherlink.com 1.10,2013-09-26 02:18:00,
2013-09-25 21:33:00,82.1,52.0,29.79,SE,141,2.0,5.0,35,0.00,,,0.01,weatherlink.com 1.10,2013-09-26 02:33:00,
2013-09-25 21:48:00,81.7,51.0,29.80,SE,127,2.0,5.0,35,0.00,,,0.01,weatherlink.com 1.10,2013-09-26 02:48:00,
2013-09-25 22:03:00,81.1,52.0,29.79,East,99,1.0,4.0,37,0.00,,,0.01,weatherlink.com 1.10,2013-09-26 03:03:00,
2013-09-25 22:18:00,80.4,52.0,29.80,SE,135,2.0,2.0,37,0.00,,,0.01,weatherlink.com 1.10,2013-09-26 03:18:00,
2013-09-25 22:33:00,80.6,51.0,29.80,SE,129,2.0,3.0,36,0.00,,,0.01,weatherlink.com 1.10,2013-09-26 03:33:00,
2013-09-25 22:48:00,80.2,52.0,29.80,SSE,155,0.0,2.0,37,0.00,,,0.01,weatherlink.com 1.10,2013-09-26 03:48:00,
2013-09-25 23:03:00,80.5,51.0,29.80,SSE,156,4.0,5.0,36,0.00,,,0.01,weatherlink.com 1.10,2013-09-26 04:03:00,
2013-09-25 23:18:00,80.6,51.0,29.80,SE,127,3.0,6.0,36,0.00,,,0.01,weatherlink.com 1.10,2013-09-26 04:18:00,
2013-09-25 23:33:00,79.8,51.0,29.80,SSE,162,1.0,3.0,37,0.00,,,0.01,weatherlink.com 1.10,2013-09-26 04:33:00,
2013-09-25 23:48:00,79.8,51.0,29.80,SE,132,3.0,7.0,36,0.00,,,0.01,weatherlink.com 1.10,2013-09-26 04:48:00,